Time;durP1;ratioP1;P1;durP2;ratioP2;P2;SDS_P1;SDS_P2;PMS_P1;PMS_P2;Temp;Humidity;BMP_temperature;BMP_pressure;BME280_temperature;BME280_humidity;BME280_pressure;Samples;Min_cycle;Max_cycle;Signal;HPM_P1;HPM_P2
2022/06/08 00:00:13;;;;;;;4.80;2.90;;;;;;;19.60;83.82;99347.06;6248896;28;20055;-74
2022/06/08 00:03:23;;;;;;;4.82;2.72;;;;;;;19.64;84.91;99356.31;6249934;28;20053;-74
2022/06/08 00:06:24;;;;;;;4.50;2.88;;;;;;;19.59;83.66;99345.44;6282047;28;20046;-75
2022/06/08 00:09:28;;;;;;;7.13;3.17;;;;;;;19.47;83.05;99350.25;6249821;28;20041;-74
2022/06/08 00:12:29;;;;;;;3.70;2.80;;;;;;;19.45;84.20;99347.75;6249416;28;20381;-74
2022/06/08 00:15:31;;;;;;;6.43;3.00;;;;;;;19.37;84.34;99345.13;6232004;28;20069;-75
2022/06/08 00:18:32;;;;;;;6.35;3.17;;;;;;;19.36;85.98;99346.13;6281324;28;20057;-75
2022/06/08 00:21:35;;;;;;;11.18;3.35;;;;;;;19.32;83.47;99348.28;6249607;28;20475;-74
2022/06/08 00:24:36;;;;;;;5.05;2.97;;;;;;;19.27;84.83;99350.63;6248326;28;20045;-74
2022/06/08 00:27:37;;;;;;;5.83;2.87;;;;;;;19.32;83.37;99345.63;6248403;28;20115;-75
2022/06/08 00:30:38;;;;;;;8.95;4.43;;;;;;;19.30;82.81;99349.44;6248051;28;20045;-75
2022/06/08 00:33:42;;;;;;;6.23;3.30;;;;;;;19.30;81.77;99338.88;6264559;28;20056;-75
2022/06/08 00:36:43;;;;;;;4.95;2.70;;;;;;;19.32;83.86;99350.13;6249335;28;20041;-75
2022/06/08 00:39:43;;;;;;;4.90;3.10;;;;;;;19.31;83.52;99343.16;6249294;28;20065;-75
2022/06/08 00:42:44;;;;;;;6.70;3.00;;;;;;;19.29;82.73;99337.22;6281042;28;20049;-75
2022/06/08 00:45:46;;;;;;;6.97;3.20;;;;;;;19.28;83.80;99339.03;6264446;28;20091;-75
2022/06/08 00:48:49;;;;;;;;;;;;;;;19.26;83.23;99340.19;6280186;28;20054;-75
2022/06/08 00:51:51;;;;;;;5.63;3.22;;;;;;;19.24;84.79;99334.25;6247642;28;20249;-75
2022/06/08 00:54:58;;;;;;;7.32;3.55;;;;;;;19.14;85.15;99321.19;6248951;28;20049;-75
2022/06/08 00:58:04;;;;;;;6.32;3.00;;;;;;;19.07;85.71;99322.88;6248613;28;20053;-75
2022/06/08 01:01:05;;;;;;;4.28;3.10;;;;;;;19.08;84.92;99324.50;6247120;28;20041;-75
2022/06/08 01:04:14;;;;;;;7.47;3.33;;;;;;;19.03;85.00;99322.38;6280330;28;20041;-75
2022/06/08 01:07:20;;;;;;;6.88;3.40;;;;;;;18.96;87.19;99320.53;6247439;28;20128;-75
2022/06/08 01:10:28;;;;;;;6.57;3.30;;;;;;;18.90;86.73;99327.31;6247199;28;20480;-74
2022/06/08 01:13:32;;;;;;;9.55;3.45;;;;;;;18.83;87.21;99311.28;6247366;28;20095;-75
2022/06/08 01:16:35;;;;;;;4.57;2.97;;;;;;;18.84;88.31;99309.47;6248228;28;20125;-75
2022/06/08 01:19:40;;;;;;;6.80;3.45;;;;;;;18.80;86.96;99316.91;6263342;28;20069;-75
2022/06/08 01:22:41;;;;;;;6.82;3.00;;;;;;;18.83;88.86;99315.75;6247137;28;20041;-75
2022/06/08 01:26:14;;;;;;;7.90;2.93;;;;;;;18.83;88.88;99310.47;6263582;28;20052;-75
2022/06/08 01:29:21;;;;;;;7.82;3.28;;;;;;;18.79;89.74;99317.91;6280105;28;20053;-75
2022/06/08 01:32:59;;;;;;;7.40;3.20;;;;;;;18.75;92.77;99316.53;6248171;28;20044;-75
2022/06/08 01:36:05;;;;;;;3.95;3.20;;;;;;;18.68;91.37;99305.81;6247785;28;20045;-75
2022/06/08 01:39:21;;;;;;;5.45;3.35;;;;;;;18.69;92.19;99311.91;6246965;28;20095;-74
2022/06/08 01:42:54;;;;;;;5.40;3.53;;;;;;;18.64;92.97;99308.94;6247968;28;20041;-75
2022/06/08 01:46:20;;;;;;;3.53;2.80;;;;;;;18.62;92.70;99313.56;6246487;28;20460;-74
2022/06/08 01:49:51;;;;;;;4.88;3.50;;;;;;;18.58;93.28;99306.97;6246542;28;20053;-75
2022/06/08 01:53:10;;;;;;;4.88;3.60;;;;;;;18.47;93.18;99308.94;6247776;28;20044;-75
2022/06/08 01:56:16;;;;;;;6.13;3.42;;;;;;;18.47;95.32;99306.28;6247619;28;20365;-74
2022/06/08 01:59:23;;;;;;;4.63;3.40;;;;;;;18.46;95.58;99314.34;6246202;28;20052;-74
2022/06/08 02:02:42;;;;;;;5.47;3.60;;;;;;;18.46;95.17;99312.53;6246528;28;20045;-74
2022/06/08 02:06:11;;;;;;;9.45;3.92;;;;;;;18.49;94.73;99314.88;6247781;28;20472;-74
2022/06/08 02:09:40;;;;;;;7.63;3.40;;;;;;;18.54;94.25;99322.31;6247608;28;20117;-75
2022/06/08 02:12:51;;;;;;;8.43;4.10;;;;;;;18.56;94.76;99316.88;6247511;28;20033;-75
2022/06/08 02:15:58;;;;;;;4.83;4.00;;;;;;;18.58;93.65;99315.69;6247542;28;20377;-75
2022/06/08 02:19:05;;;;;;;5.55;4.13;;;;;;;18.60;95.17;99316.38;6247569;28;20046;-75
2022/06/08 02:22:06;;;;;;;5.88;4.65;;;;;;;18.59;94.55;99319.97;6246116;28;20050;-75
2022/06/08 02:25:13;;;;;;;6.43;4.73;;;;;;;18.66;95.98;99315.72;6245994;28;20381;-74
2022/06/08 02:28:44;;;;;;;8.18;4.68;;;;;;;18.71;94.96;99320.50;6246131;28;20052;-75
2022/06/08 02:35:35;;;;;;;9.75;4.57;;;;;;;18.75;95.40;99326.28;6247012;28;20107;-74
2022/06/08 02:38:47;;;;;;;5.75;4.57;;;;;;;18.78;96.26;99334.72;6246742;28;20428;-74
2022/06/08 02:41:55;;;;;;;8.88;4.75;;;;;;;18.75;96.07;99335.03;6246002;28;20128;-75
2022/06/08 02:45:10;;;;;;;7.13;4.82;;;;;;;18.78;95.83;99339.16;6245798;28;20041;-74
2022/06/08 02:48:13;;;;;;;6.53;4.75;;;;;;;18.80;96.48;99334.56;6245717;28;20147;-75
2022/06/08 02:51:26;;;;;;;11.18;4.90;;;;;;;18.84;95.50;99342.03;6246739;28;20053;-73
2022/06/08 02:54:27;;;;;;;9.40;4.90;;;;;;;18.91;95.41;99345.66;6246846;28;20048;-73
2022/06/08 02:57:45;;;;;;;;;;;;;;;18.90;96.00;99340.53;6247325;28;20441;-74
2022/06/08 03:00:56;;;;;;;11.75;4.88;;;;;;;18.88;96.29;99339.84;6246835;28;19921;-74
2022/06/08 03:04:04;;;;;;;10.82;5.05;;;;;;;18.83;98.26;99342.19;6278692;28;20107;-74
2022/06/08 03:07:14;;;;;;;13.82;5.05;;;;;;;18.83;98.13;99350.94;6246557;28;20049;-75
2022/06/08 03:10:18;;;;;;;9.07;5.20;;;;;;;18.82;99.17;99351.94;6246652;28;20041;-75
2022/06/08 03:13:30;;;;;;;9.23;4.75;;;;;;;18.84;99.59;99364.97;6249634;28;20069;-74
2022/06/08 03:16:39;;;;;;;10.00;4.93;;;;;;;18.83;99.81;99364.16;6251117;28;20045;-75
2022/06/08 03:19:40;;;;;;;7.13;4.90;;;;;;;18.83;100.00;99376.53;6249838;28;20049;-75
2022/06/08 03:22:41;;;;;;;11.17;4.97;;;;;;;18.90;100.00;99374.88;6250005;28;20412;-74
2022/06/08 03:25:42;;;;;;;8.93;4.70;;;;;;;18.90;99.64;99377.53;6282848;28;20045;-74
2022/06/08 03:28:43;;;;;;;9.50;5.43;;;;;;;18.88;100.00;99374.22;6249484;28;20042;-75
2022/06/08 03:31:44;;;;;;;16.03;5.23;;;;;;;19.00;99.35;99382.66;6249799;28;20281;-75
2022/06/08 03:34:45;;;;;;;8.30;5.17;;;;;;;19.01;100.00;99379.88;6233229;28;20045;-75
2022/06/08 03:37:49;;;;;;;7.30;5.10;;;;;;;19.03;100.00;99385.00;6249663;28;20480;-74
2022/06/08 03:40:50;;;;;;;9.73;5.47;;;;;;;19.04;100.00;99389.28;6250399;28;20049;-74
2022/06/08 03:43:50;;;;;;;11.40;5.40;;;;;;;19.11;100.00;99388.47;6265819;28;20050;-75
2022/06/08 03:47:04;;;;;;;10.23;5.38;;;;;;;19.11;100.00;99380.53;6265906;28;20059;-74
2022/06/08 03:50:09;;;;;;;8.75;5.47;;;;;;;19.17;100.00;99381.69;6249574;28;20108;-74
2022/06/08 03:53:18;;;;;;;8.30;5.32;;;;;;;19.20;100.00;99391.09;6248941;28;20140;-74
2022/06/08 03:56:21;;;;;;;10.50;5.60;;;;;;;19.19;100.00;99394.72;6249003;28;20124;-74
2022/06/08 03:59:24;;;;;;;7.85;5.57;;;;;;;19.21;100.00;99400.69;6249867;28;20731;-75
2022/06/08 04:02:25;;;;;;;9.10;5.65;;;;;;;19.28;100.00;99397.22;6249699;28;20056;-74
2022/06/08 04:05:26;;;;;;;8.33;5.03;;;;;;;19.35;100.00;99394.72;6281728;28;20488;-75
2022/06/08 04:08:27;;;;;;;8.13;5.90;;;;;;;19.40;100.00;99396.91;6281660;28;20045;-75
2022/06/08 04:11:28;;;;;;;10.17;5.90;;;;;;;19.46;100.00;99398.88;6264994;28;20095;-74
2022/06/08 04:14:29;;;;;;;11.17;5.53;;;;;;;19.50;100.00;99397.56;6281815;28;20158;-76
2022/06/08 04:17:30;;;;;;;9.80;6.07;;;;;;;19.43;100.00;99399.19;6265167;28;20545;-76
2022/06/08 04:20:31;;;;;;;8.97;5.87;;;;;;;19.47;100.00;99409.28;6249784;28;20053;-74
2022/06/08 04:23:37;;;;;;;13.47;6.00;;;;;;;19.62;100.00;99413.88;6264647;28;20471;-74
2022/06/08 04:26:39;;;;;;;13.23;6.60;;;;;;;19.67;100.00;99411.56;6247709;28;20053;-74
2022/06/08 04:29:42;;;;;;;;;;;;;;;19.72;100.00;99415.38;6249748;28;20084;-75
2022/06/08 04:32:44;;;;;;;11.43;6.68;;;;;;;19.80;100.00;99413.72;6248094;28;19925;-75
2022/06/08 04:35:48;;;;;;;9.55;6.60;;;;;;;19.86;100.00;99415.69;6248047;28;20049;-76
2022/06/08 04:38:51;;;;;;;9.48;6.80;;;;;;;19.92;100.00;99412.38;6248071;28;20053;-74
2022/06/08 04:41:52;;;;;;;8.85;6.38;;;;;;;19.96;100.00;99410.22;6264571;28;20128;-74
2022/06/08 04:44:53;;;;;;;9.23;6.77;;;;;;;20.03;100.00;99408.53;6264573;28;20045;-75
2022/06/08 04:47:54;;;;;;;9.90;6.67;;;;;;;20.10;100.00;99412.16;6264228;28;20049;-74
2022/06/08 04:50:57;;;;;;;11.37;6.13;;;;;;;20.16;100.00;99410.63;6264455;28;20045;-76
2022/06/08 04:53:58;;;;;;;10.07;5.80;;;;;;;20.31;98.61;99404.47;6253740;28;20052;-76
2022/06/08 04:57:00;;;;;;;6.80;5.70;;;;;;;20.37;97.94;99402.94;6255226;28;20038;-75
2022/06/08 05:00:01;;;;;;;;;;;;;;;20.45;99.91;99405.56;6263546;28;20408;-75
2022/06/08 05:03:02;;;;;;;10.13;5.95;;;;;;;20.52;98.06;99408.34;6246792;28;19921;-75
2022/06/08 05:06:04;;;;;;;8.10;6.45;;;;;;;20.59;96.74;99405.84;6246653;28;20095;-75
2022/06/08 05:09:05;;;;;;;9.13;5.97;;;;;;;20.68;96.30;99399.50;6246644;28;20359;-75
2022/06/08 05:12:07;;;;;;;13.60;5.67;;;;;;;20.76;94.72;99403.94;6262990;28;20427;-76
2022/06/08 05:15:09;;;;;;;;;;;;;;;20.86;93.35;99401.91;6247064;28;20052;-76
2022/06/08 05:18:14;;;;;;;6.63;4.57;;;;;;;20.96;93.64;99398.97;6270493;28;19927;-75
2022/06/08 05:21:15;;;;;;;5.78;4.78;;;;;;;21.12;91.24;99404.16;6271037;28;20052;-74
2022/06/08 05:24:17;;;;;;;10.27;4.90;;;;;;;21.21;89.41;99412.88;6254314;28;20043;-75
2022/06/08 05:27:21;;;;;;;9.52;4.97;;;;;;;21.27;91.09;99409.50;6270751;28;20056;-76
2022/06/08 05:30:25;;;;;;;8.63;4.78;;;;;;;21.32;91.53;99408.00;6270738;28;20064;-75
2022/06/08 05:33:27;;;;;;;9.95;5.55;;;;;;;21.44;91.10;99413.72;6269367;28;20044;-75
2022/06/08 05:36:28;;;;;;;8.88;5.75;;;;;;;21.48;91.06;99414.22;6270238;28;20044;-77
2022/06/08 05:39:33;;;;;;;10.73;5.90;;;;;;;21.67;88.84;99423.47;6254190;28;20391;-73
2022/06/08 05:42:34;;;;;;;9.65;5.20;;;;;;;21.71;88.23;99424.78;6272125;28;20036;-77
2022/06/08 05:45:36;;;;;;;8.03;5.10;;;;;;;21.73;86.75;99420.91;6253938;28;20576;-74
2022/06/08 05:48:36;;;;;;;5.68;4.80;;;;;;;21.89;85.33;99427.91;6270621;28;20057;-73
2022/06/08 05:51:39;;;;;;;7.30;5.23;;;;;;;22.06;87.45;99420.56;6240934;28;20056;-73
2022/06/08 05:54:41;;;;;;;9.07;4.38;;;;;;;22.19;82.20;99427.88;6279023;28;20095;-73
2022/06/08 05:57:42;;;;;;;5.90;4.03;;;;;;;22.27;81.64;99429.66;6269776;28;20053;-74
2022/06/08 06:00:48;;;;;;;5.25;4.22;;;;;;;22.13;78.40;99432.13;6272420;28;20083;-74
2022/06/08 06:03:51;;;;;;;7.25;3.70;;;;;;;22.42;77.22;99433.13;6271077;28;20052;-73
2022/06/08 06:06:52;;;;;;;6.70;3.97;;;;;;;22.70;80.14;99433.25;6263248;28;20034;-74
2022/06/08 06:09:53;;;;;;;11.00;3.50;;;;;;;22.86;74.83;99434.06;6279461;28;20045;-77
2022/06/08 06:12:57;;;;;;;5.43;3.05;;;;;;;22.96;74.61;99439.03;6263269;28;20053;-77
2022/06/08 06:15:58;;;;;;;7.15;3.20;;;;;;;23.09;73.87;99433.91;6261378;28;20044;-74
2022/06/08 06:19:01;;;;;;;6.87;2.93;;;;;;;23.30;73.40;99431.22;6254980;28;20384;-77
2022/06/08 06:22:04;;;;;;;5.10;3.03;;;;;;;23.42;69.89;99439.53;6256817;28;20468;-77
2022/06/08 06:25:07;;;;;;;4.47;3.17;;;;;;;23.58;70.34;99437.63;6270028;28;20457;-77
2022/06/08 06:28:08;;;;;;;6.63;3.22;;;;;;;23.59;69.73;99449.91;6276456;28;20144;-77
2022/06/08 06:31:15;;;;;;;4.20;3.07;;;;;;;23.78;66.36;99443.09;6251625;28;20514;-77
2022/06/08 06:34:19;;;;;;;4.70;2.78;;;;;;;23.96;66.09;99431.97;6257808;28;20049;-77
2022/06/08 06:37:20;;;;;;;4.60;3.15;;;;;;;24.17;68.06;99439.84;6263256;28;20507;-77
2022/06/08 06:40:24;;;;;;;8.80;3.58;;;;;;;24.19;67.26;99450.31;6265898;28;20115;-77
2022/06/08 06:43:25;;;;;;;3.65;2.70;;;;;;;24.42;61.84;99445.53;6250682;28;20270;-77
2022/06/08 06:46:26;;;;;;;4.03;2.90;;;;;;;24.57;61.11;99441.94;6285659;28;20045;-73
2022/06/08 06:49:28;;;;;;;5.07;2.97;;;;;;;24.78;61.53;99443.63;6269236;28;20052;-77
2022/06/08 06:52:29;;;;;;;3.80;2.60;;;;;;;24.88;58.69;99444.91;6276434;28;20053;-77
2022/06/08 06:55:32;;;;;;;7.13;2.92;;;;;;;24.84;58.79;99437.50;6262860;28;20048;-74
2022/06/08 06:58:32;;;;;;;4.00;2.70;;;;;;;24.87;56.99;99435.25;6274351;28;20514;-74
2022/06/08 07:01:34;;;;;;;5.22;2.53;;;;;;;24.85;55.93;99426.63;6263858;28;20040;-74
2022/06/08 07:04:35;;;;;;;4.45;2.78;;;;;;;24.87;57.09;99421.06;6278758;28;20407;-74
2022/06/08 07:07:38;;;;;;;3.55;2.53;;;;;;;25.30;58.79;99423.44;6257625;28;20037;-74
2022/06/08 07:10:39;;;;;;;4.63;2.65;;;;;;;25.40;55.68;99425.69;6274148;28;20041;-78
2022/06/08 07:13:42;;;;;;;11.82;3.03;;;;;;;25.68;54.42;99431.63;6254687;28;20095;-77
2022/06/08 07:16:45;;;;;;;9.52;3.15;;;;;;;25.67;53.71;99423.81;6265435;28;20176;-77
2022/06/08 07:19:46;;;;;;;4.30;2.72;;;;;;;25.69;55.88;99421.78;6250356;28;20061;-78
2022/06/08 07:22:49;;;;;;;6.80;2.80;;;;;;;25.66;52.49;99417.66;6282230;28;20041;-77
2022/06/08 07:25:50;;;;;;;3.65;2.70;;;;;;;25.67;55.53;99418.47;6249020;28;20505;-77
2022/06/08 07:28:52;;;;;;;4.03;2.90;;;;;;;25.88;53.07;99415.59;6265548;28;20068;-77
2022/06/08 07:31:55;;;;;;;8.82;2.90;;;;;;;25.30;53.88;99420.75;6251480;28;20042;-77
2022/06/08 07:34:56;;;;;;;5.85;2.72;;;;;;;25.78;53.54;99422.38;6270432;28;20045;-73
2022/06/08 07:37:59;;;;;;;7.35;2.90;;;;;;;25.93;54.81;99415.00;6270306;28;20083;-77
2022/06/08 07:41:00;;;;;;;3.88;2.70;;;;;;;26.39;54.15;99413.19;6253706;28;20044;-77
2022/06/08 07:44:04;;;;;;;4.10;2.72;;;;;;;26.70;55.04;99410.59;6249677;28;20041;-77
2022/06/08 07:47:05;;;;;;;4.25;2.72;;;;;;;26.90;50.58;99413.16;6281648;28;20042;-77
2022/06/08 07:50:09;;;;;;;2.85;2.65;;;;;;;26.72;51.52;99419.22;6281208;28;20057;-77
2022/06/08 07:53:10;;;;;;;4.25;2.42;;;;;;;27.09;49.28;99414.03;6264808;28;20137;-74
2022/06/08 07:56:11;;;;;;;;;;;;;;;27.14;49.25;99421.44;6264861;28;20119;-77
2022/06/08 07:59:12;;;;;;;3.63;2.73;;;;;;;27.46;51.77;99416.88;6285799;28;20416;-74
2022/06/08 08:02:15;;;;;;;;;;;;;;;27.51;50.87;99419.72;6249614;28;20139;-74
2022/06/08 08:05:20;;;;;;;6.00;2.70;;;;;;;27.58;47.63;99422.34;6248144;28;19920;-77
2022/06/08 08:08:20;;;;;;;3.05;2.47;;;;;;;27.50;48.38;99414.59;6279900;28;20073;-74
2022/06/08 08:11:25;;;;;;;5.45;3.40;;;;;;;27.82;47.75;99418.00;6246646;28;20079;-74
2022/06/08 08:14:29;;;;;;;9.93;2.85;;;;;;;27.99;48.30;99412.09;6280146;28;20092;-77
2022/06/08 08:17:32;;;;;;;4.57;2.47;;;;;;;27.99;46.70;99412.09;6263647;28;20037;-77
2022/06/08 08:20:35;;;;;;;5.65;2.78;;;;;;;27.90;47.79;99409.69;6280741;28;20473;-73
2022/06/08 08:23:35;;;;;;;5.32;2.50;;;;;;;28.11;46.74;99408.44;6230945;28;20059;-77
2022/06/08 08:26:37;;;;;;;3.92;2.60;;;;;;;28.32;49.53;99400.97;6248499;28;20416;-74
2022/06/08 08:29:39;;;;;;;4.22;2.72;;;;;;;28.29;46.27;99402.25;6280545;28;20125;-74
2022/06/08 08:32:40;;;;;;;6.18;3.05;;;;;;;28.61;44.77;99410.13;6280102;28;20045;-77
2022/06/08 08:35:42;;;;;;;8.18;3.25;;;;;;;28.79;43.54;99401.19;6248374;28;20420;-74
2022/06/08 08:38:45;;;;;;;4.43;3.17;;;;;;;28.83;41.82;99404.25;6248199;28;20099;-73
2022/06/08 08:45:18;;;;;;;5.95;3.13;;;;;;;29.05;43.06;99399.97;6247991;28;20041;-74
2022/06/08 08:48:36;;;;;;;7.97;2.90;;;;;;;29.42;43.28;99393.63;6279705;28;20045;-74
2022/06/08 08:51:45;;;;;;;6.30;2.90;;;;;;;29.46;44.29;99387.53;6247946;28;20049;-74
2022/06/08 08:54:57;;;;;;;3.55;2.65;;;;;;;29.92;42.91;99390.50;6247929;28;20530;-78
2022/06/08 08:58:02;;;;;;;5.28;2.53;;;;;;;29.91;42.40;99392.34;6246626;28;20722;-77
2022/06/08 09:01:33;;;;;;;5.13;2.78;;;;;;;29.94;44.45;99391.06;6247992;28;20069;-74
2022/06/08 09:04:41;;;;;;;5.05;2.63;;;;;;;29.84;41.59;99388.16;6248024;28;20049;-74
2022/06/08 09:07:45;;;;;;;4.28;2.60;;;;;;;30.07;41.49;99395.38;6246432;28;20407;-74
2022/06/08 09:10:46;;;;;;;2.72;2.35;;;;;;;29.60;47.82;99384.63;6245399;28;20111;-78
2022/06/08 09:14:00;;;;;;;8.65;2.80;;;;;;;29.93;43.14;99387.53;6246288;28;20123;-74
2022/06/08 09:17:18;;;;;;;6.22;2.80;;;;;;;29.05;46.48;99383.03;6247348;28;20052;-75
2022/06/08 09:20:30;;;;;;;3.25;2.90;;;;;;;29.33;47.42;99383.22;6246167;28;20480;-75
2022/06/08 09:23:53;;;;;;;3.33;2.97;;;;;;;29.58;42.45;99373.31;6247391;28;20049;-74
2022/06/08 09:27:12;;;;;;;5.35;3.10;;;;;;;29.91;41.90;99372.69;6245850;28;20061;-78
2022/06/08 09:30:48;;;;;;;7.10;2.92;;;;;;;30.36;39.08;99355.88;6247163;28;20042;-78
2022/06/08 09:34:02;;;;;;;4.65;2.97;;;;;;;30.14;39.09;99363.75;6262424;28;20111;-75
2022/06/08 09:37:20;;;;;;;5.85;3.00;;;;;;;30.26;41.65;99363.72;6275234;28;20045;-78
2022/06/08 09:40:36;;;;;;;5.95;2.70;;;;;;;30.75;44.72;99358.75;6247107;28;20045;-78
2022/06/08 09:43:46;;;;;;;6.43;3.00;;;;;;;30.93;40.89;99355.84;6245756;28;20083;-74
2022/06/08 09:54:31;;;;;;;5.95;3.10;;;;;;;29.82;44.74;99355.31;6246312;28;20081;-77
2022/06/08 09:57:34;;;;;;;5.47;2.95;;;;;;;29.23;41.15;99347.25;6245447;28;20432;-78
2022/06/08 10:01:03;;;;;;;8.38;3.20;;;;;;;29.79;43.07;99345.03;6247321;28;20046;-74
2022/06/08 10:04:37;;;;;;;4.95;3.05;;;;;;;30.13;42.09;99341.44;6246601;28;20049;-74
2022/06/08 10:07:41;;;;;;;5.90;2.92;;;;;;;30.24;41.52;99338.94;6246710;28;20480;-74
2022/06/08 10:10:55;;;;;;;6.07;2.92;;;;;;;29.77;41.38;99339.88;6246506;28;20041;-74
2022/06/08 10:14:03;;;;;;;8.82;3.33;;;;;;;29.42;47.32;99342.56;6246588;28;20041;-75
2022/06/08 10:17:10;;;;;;;7.35;3.40;;;;;;;30.27;40.23;99335.75;6245220;28;20073;-74
2022/06/08 10:20:24;;;;;;;4.75;3.00;;;;;;;30.50;41.19;99329.50;6246441;28;20125;-75
2022/06/08 10:23:33;;;;;;;12.35;3.20;;;;;;;31.31;39.16;99334.59;6251460;28;20041;-74
2022/06/08 10:26:48;;;;;;;6.03;3.00;;;;;;;30.99;37.69;99332.50;6251414;28;20052;-74
2022/06/08 10:30:14;;;;;;;7.75;3.22;;;;;;;31.46;40.90;99336.72;6251175;28;20083;-75
2022/06/08 10:34:16;;;;;;;4.65;2.92;;;;;;;32.30;37.97;99331.03;6250007;28;20404;-74
2022/06/08 10:37:18;;;;;;;;;;;;;;;30.67;41.69;99326.81;6224235;28;20050;-74
2022/06/08 10:40:37;;;;;;;5.07;2.88;;;;;;;30.04;42.28;99326.75;6223803;28;19937;-77
2022/06/08 10:43:40;;;;;;;5.32;3.03;;;;;;;29.42;41.18;99319.19;6251004;28;20037;-78
2022/06/08 10:46:47;;;;;;;9.57;3.35;;;;;;;29.21;42.46;99311.75;6250975;28;20045;-74
2022/06/08 10:49:52;;;;;;;5.40;3.10;;;;;;;29.40;44.43;99312.44;6232732;28;20496;-77
2022/06/08 10:52:52;;;;;;;8.75;3.50;;;;;;;28.80;42.87;99319.59;6250896;28;20519;-77
2022/06/08 10:55:54;;;;;;;7.95;3.20;;;;;;;28.77;43.37;99309.34;6266012;28;20080;-74
2022/06/08 10:59:07;;;;;;;12.95;3.15;;;;;;;29.30;40.18;99305.78;6265974;28;20037;-77
2022/06/08 11:02:10;;;;;;;6.88;3.47;;;;;;;28.78;42.60;99304.78;6250551;28;20045;-77
2022/06/08 11:05:35;;;;;;;6.03;3.42;;;;;;;29.07;46.82;99301.19;6265923;28;20054;-77
2022/06/08 11:08:52;;;;;;;5.43;3.47;;;;;;;29.50;43.03;99294.66;6249023;28;20045;-78
2022/06/08 11:12:14;;;;;;;5.32;3.22;;;;;;;30.71;41.06;99288.41;6250369;28;20092;-76
2022/06/08 11:15:33;;;;;;;3.97;3.38;;;;;;;31.32;39.75;99295.81;6250314;28;20095;-77
2022/06/08 11:18:45;;;;;;;4.35;2.80;;;;;;;31.41;39.85;99288.94;6250207;28;20052;-73
2022/06/08 11:21:45;;;;;;;;;;;;;;;32.03;40.84;99287.03;6250581;28;20116;-75
2022/06/08 11:24:49;;;;;;;;;;;;;;;32.02;34.83;99275.44;6250584;28;20007;-74
2022/06/08 11:28:28;;;;;;;5.80;3.22;;;;;;;32.21;36.41;99267.00;6273904;28;19927;-74
2022/06/08 11:31:28;;;;;;;8.73;3.10;;;;;;;32.48;36.00;99269.66;6260354;28;20056;-77
2022/06/08 11:34:31;;;;;;;;;;;;;;;32.39;36.34;99272.03;6248949;28;20041;-74
2022/06/08 11:38:10;;;;;;;5.90;3.20;;;;;;;32.82;37.73;99267.53;6281932;28;19921;-78
2022/06/08 11:41:33;;;;;;;5.97;3.05;;;;;;;32.24;36.59;99263.78;6263861;28;20486;-74
2022/06/08 11:44:40;;;;;;;5.55;3.42;;;;;;;32.13;35.91;99268.25;6249794;28;20120;-78
2022/06/08 11:48:08;;;;;;;3.50;3.20;;;;;;;31.04;38.56;99265.25;6258917;28;20056;-77
2022/06/08 11:51:09;;;;;;;5.82;3.10;;;;;;;30.53;40.38;99253.63;6268270;28;20046;-77
2022/06/08 11:54:22;;;;;;;3.90;3.03;;;;;;;31.35;34.98;99249.50;6249579;28;20476;-74
2022/06/08 11:57:23;;;;;;;4.07;3.10;;;;;;;32.03;38.24;99243.88;6248254;28;20124;-74
2022/06/08 12:00:28;;;;;;;;;;;;;;;32.29;35.78;99242.25;6281690;28;20067;-74
2022/06/08 12:03:44;;;;;;;4.10;2.95;;;;;;;32.69;34.71;99230.19;6272063;28;19974;-75
2022/06/08 12:06:46;;;;;;;6.28;2.90;;;;;;;32.83;35.11;99225.16;6272644;28;20081;-76
2022/06/08 12:09:46;;;;;;;4.65;3.10;;;;;;;32.91;32.44;99222.75;6272613;28;20049;-74
2022/06/08 12:12:48;;;;;;;;;;;;;;;32.55;34.69;99229.00;6256187;28;20126;-78
2022/06/08 12:15:52;;;;;;;4.43;3.22;;;;;;;32.59;33.27;99209.31;6273666;28;20299;-77
2022/06/08 12:18:56;;;;;;;8.70;3.28;;;;;;;33.14;32.55;99215.34;6249785;28;20098;-74
2022/06/08 12:22:21;;;;;;;10.13;2.97;;;;;;;33.08;32.35;99208.31;6231040;28;20467;-77
2022/06/08 12:25:27;;;;;;;5.28;3.10;;;;;;;33.11;32.82;99207.75;6248769;28;20053;-78
2022/06/08 12:28:33;;;;;;;13.10;3.67;;;;;;;32.85;31.61;99201.38;6248669;28;20148;-78
2022/06/08 12:31:34;;;;;;;5.25;3.10;;;;;;;32.52;31.58;99196.00;6263290;28;20508;-74
2022/06/08 12:34:47;;;;;;;;;;;;;;;32.08;32.20;99189.97;6247761;28;20038;-78
2022/06/08 12:38:13;;;;;;;10.65;3.10;;;;;;;32.04;33.91;99192.38;6248511;28;19921;-78
2022/06/08 12:41:15;;;;;;;5.65;2.92;;;;;;;32.43;31.25;99192.16;6230521;28;20050;-74
2022/06/08 12:44:26;;;;;;;7.28;3.45;;;;;;;32.91;30.76;99194.94;6247181;28;20042;-74
2022/06/08 12:47:38;;;;;;;3.22;2.90;;;;;;;32.99;30.18;99189.03;6246832;28;20114;-78
2022/06/08 12:50:40;;;;;;;3.28;2.70;;;;;;;33.04;29.59;99182.84;6279728;28;20516;-78
2022/06/08 12:53:41;;;;;;;;;;;;;;;32.89;32.48;99186.28;6247507;28;20042;-77
2022/06/08 12:56:44;;;;;;;7.13;2.95;;;;;;;32.69;31.67;99182.38;6230204;28;19948;-78
2022/06/08 12:59:48;;;;;;;6.40;3.30;;;;;;;32.52;33.53;99174.41;6246736;28;20407;-78
2022/06/08 13:02:50;;;;;;;3.80;2.78;;;;;;;32.40;32.37;99170.25;6246614;28;20045;-77
2022/06/08 13:05:56;;;;;;;4.65;3.33;;;;;;;32.07;31.55;99161.38;6232606;28;20546;-78
2022/06/08 13:08:57;;;;;;;4.45;2.53;;;;;;;32.15;30.52;99168.19;6247778;28;20041;-78
2022/06/08 13:12:01;;;;;;;4.78;2.70;;;;;;;32.04;31.81;99151.06;6230188;28;20464;-74
2022/06/08 13:15:02;;;;;;;3.92;2.58;;;;;;;32.15;31.84;99149.28;6279658;28;20047;-78
2022/06/08 13:18:06;;;;;;;4.28;2.83;;;;;;;31.81;29.38;99136.81;6247545;28;20068;-78
2022/06/08 13:21:11;;;;;;;4.38;2.95;;;;;;;31.55;31.49;99137.63;6279480;28;20056;-76
2022/06/08 13:24:12;;;;;;;6.95;2.83;;;;;;;31.44;30.37;99134.84;6246253;28;20041;-75
2022/06/08 13:27:14;;;;;;;;;;;;;;;31.61;31.61;99128.53;6278813;28;20522;-76
2022/06/08 13:30:38;;;;;;;6.43;3.13;;;;;;;31.56;30.75;99140.06;6269897;28;19956;-76
2022/06/08 13:33:56;;;;;;;3.58;2.80;;;;;;;31.55;30.49;99124.13;6278805;28;20550;-75
2022/06/08 13:37:01;;;;;;;3.45;2.50;;;;;;;31.60;30.66;99124.22;6260328;28;20091;-76
2022/06/08 13:40:09;;;;;;;3.08;2.78;;;;;;;31.57;30.62;99116.63;6245955;28;20041;-73
2022/06/08 13:43:11;;;;;;;5.13;2.97;;;;;;;31.28;32.55;99114.97;6245936;28;20473;-76
2022/06/08 13:46:17;;;;;;;;;;;;;;;31.08;31.53;99112.81;6229930;28;20069;-76
2022/06/08 13:49:21;;;;;;;3.88;2.97;;;;;;;30.75;33.34;99113.72;6260948;28;19920;-76
2022/06/08 13:52:25;;;;;;;5.68;2.97;;;;;;;30.46;32.37;99118.44;6270379;28;20044;-75
2022/06/08 13:55:33;;;;;;;3.63;2.83;;;;;;;30.32;33.37;99118.75;6269940;28;20465;-76
2022/06/08 13:58:33;;;;;;;5.38;2.72;;;;;;;30.36;32.59;99115.59;6270418;28;20094;-75
2022/06/08 14:01:35;;;;;;;;;;;;;;;30.51;32.85;99110.41;6271788;28;20044;-76
2022/06/08 14:04:38;;;;;;;4.10;3.25;;;;;;;30.77;34.28;99119.69;6287045;28;19927;-76
2022/06/08 14:14:22;;;;;;;6.20;2.78;;;;;;;30.61;32.24;99113.25;6246534;28;20048;-75
2022/06/08 14:17:24;;;;;;;6.18;2.88;;;;;;;30.51;31.94;99116.59;6246537;28;20047;-73
2022/06/08 14:20:37;;;;;;;4.47;2.72;;;;;;;30.46;33.54;99113.84;6229157;28;20050;-73
2022/06/08 14:23:41;;;;;;;4.20;2.72;;;;;;;30.36;32.62;99110.22;6245511;28;20038;-74
2022/06/08 14:26:44;;;;;;;5.22;2.90;;;;;;;30.10;32.84;99102.53;6245356;28;20091;-76
2022/06/08 14:29:47;;;;;;;5.90;2.75;;;;;;;29.91;34.19;99109.19;6261583;28;20073;-76
2022/06/08 14:32:54;;;;;;;8.27;2.70;;;;;;;29.58;32.43;99101.88;6245386;28;20091;-76
2022/06/08 14:35:56;;;;;;;7.72;3.15;;;;;;;29.56;34.86;99098.59;6246525;28;20072;-73
2022/06/08 14:38:57;;;;;;;5.75;2.58;;;;;;;29.75;33.43;99102.72;6254232;28;20053;-76
2022/06/08 14:42:01;;;;;;;7.40;3.22;;;;;;;30.04;34.89;99102.66;6262388;28;20077;-73
2022/06/08 14:45:04;;;;;;;10.38;2.67;;;;;;;29.94;33.46;99097.97;6278445;28;20120;-73
2022/06/08 14:48:40;;;;;;;5.82;2.95;;;;;;;29.72;34.68;99093.28;6244994;28;20530;-73
2022/06/08 14:51:42;;;;;;;6.75;2.95;;;;;;;29.59;34.20;99096.25;6226173;28;20140;-73
2022/06/08 14:54:48;;;;;;;4.53;2.30;;;;;;;29.46;33.23;99091.97;6251197;28;20398;-73
2022/06/08 14:57:49;;;;;;;4.40;2.72;;;;;;;29.43;34.99;99091.66;6253349;28;20102;-76
2022/06/08 15:00:54;;;;;;;6.53;2.45;;;;;;;29.38;34.59;99092.34;6269588;28;20052;-76
2022/06/08 15:03:59;;;;;;;8.82;3.20;;;;;;;29.41;34.23;99091.88;6269039;28;20052;-76